Time;durP1;ratioP1;P1;durP2;ratioP2;P2;SDS_P1;SDS_P2;PMS_P1;PMS_P2;Temp;Humidity;BMP_temperature;BMP_pressure;BME280_temperature;BME280_humidity;BME280_pressure;Samples;Min_cycle;Max_cycle;Signal;HPM_P1;HPM_P2
2021/04/22 00:01:09;;;;;;;11.73;6.75;;;8.80;99.90;;;;;;5015186;28;20493;-83
2021/04/22 00:03:34;;;;;;;9.68;6.53;;;9.00;99.90;;;;;;5034116;28;20401;-83
2021/04/22 00:06:00;;;;;;;9.95;7.25;;;9.00;99.90;;;;;;5037171;28;20469;-83
2021/04/22 00:08:26;;;;;;;14.20;7.10;;;9.10;99.90;;;;;;5018876;28;20110;-83
2021/04/22 00:10:53;;;;;;;8.70;6.45;;;9.10;99.90;;;;;;5036540;28;20029;-83
2021/04/22 00:13:24;;;;;;;10.13;6.60;;;9.00;99.90;;;;;;5018718;28;20033;-83
2021/04/22 00:15:51;;;;;;;9.38;7.03;;;8.60;99.90;;;;;;5036753;28;20104;-83
2021/04/22 00:18:18;;;;;;;10.00;6.90;;;8.50;99.90;;;;;;5018594;28;20032;-83
2021/04/22 00:20:44;;;;;;;11.05;7.05;;;8.40;99.90;;;;;;5018601;28;20032;-83
2021/04/22 00:23:11;;;;;;;11.38;6.50;;;8.60;99.90;;;;;;5036288;28;20017;-83
2021/04/22 00:25:37;;;;;;;11.77;6.93;;;8.70;99.90;;;;;;5036279;28;20546;-83
2021/04/22 00:28:05;;;;;;;8.73;6.93;;;8.60;99.90;;;;;;5036202;28;20096;-83
2021/04/22 00:30:32;;;;;;;9.75;7.10;;;8.60;99.90;;;;;;5036204;28;20468;-83
2021/04/22 00:32:57;;;;;;;10.27;6.88;;;8.50;99.90;;;;;;5036094;28;20036;-83
2021/04/22 00:35:24;;;;;;;10.60;7.28;;;8.70;99.90;;;;;;5036342;28;20473;-83
2021/04/22 00:37:49;;;;;;;10.18;7.07;;;8.80;99.90;;;;;;5035895;28;20036;-83
2021/04/22 00:40:21;;;;;;;9.90;6.70;;;8.70;99.90;;;;;;5036284;28;20112;-83
2021/04/22 00:42:48;;;;;;;12.95;6.85;;;8.70;99.90;;;;;;5036250;28;20028;-83
2021/04/22 00:45:15;;;;;;;7.15;6.28;;;8.80;99.90;;;;;;5018061;28;20053;-83
2021/04/22 00:47:41;;;;;;;10.60;6.95;;;9.00;99.90;;;;;;5036164;28;20389;-83
2021/04/22 00:50:22;;;;;;;10.38;6.78;;;9.00;99.90;;;;;;5018065;28;20026;-83
2021/04/22 00:52:48;;;;;;;10.30;6.10;;;9.20;99.90;;;;;;5035820;28;20029;-83
2021/04/22 00:55:14;;;;;;;8.90;6.55;;;9.10;99.90;;;;;;5035720;28;20029;-83
2021/04/22 00:57:40;;;;;;;15.40;7.35;;;9.10;99.90;;;;;;5017876;28;20463;-83
2021/04/22 01:00:08;;;;;;;10.85;7.28;;;9.00;99.90;;;;;;5035651;28;20057;-83
2021/04/22 01:02:36;;;;;;;11.15;7.50;;;9.00;99.90;;;;;;5035625;28;20026;-83
2021/04/22 01:05:06;;;;;;;9.50;7.53;;;9.00;99.90;;;;;;5018116;28;20507;-83
2021/04/22 01:07:32;;;;;;;15.93;8.30;;;9.10;99.90;;;;;;5035844;28;20463;-83
2021/04/22 01:09:58;;;;;;;10.73;8.02;;;9.20;99.90;;;;;;5035440;28;20053;-83
2021/04/22 01:12:23;;;;;;;12.52;6.93;;;9.10;99.90;;;;;;5035460;28;20018;-83
2021/04/22 01:14:49;;;;;;;10.60;7.22;;;9.10;99.90;;;;;;5035282;28;20017;-83
2021/04/22 01:17:15;;;;;;;9.15;6.70;;;9.20;99.90;;;;;;5035608;28;20099;-83
2021/04/22 01:19:40;;;;;;;9.25;7.15;;;9.20;99.90;;;;;;5035812;28;20083;-83
2021/04/22 01:22:07;;;;;;;10.80;7.28;;;9.10;99.90;;;;;;5035242;28;20024;-83
2021/04/22 01:24:32;;;;;;;10.73;7.47;;;9.10;99.90;;;;;;5017400;28;20028;-83
2021/04/22 01:26:58;;;;;;;10.95;7.43;;;9.20;99.90;;;;;;5035149;28;20029;-83
2021/04/22 01:29:24;;;;;;;11.52;7.65;;;9.20;99.90;;;;;;5035119;28;20063;-83
2021/04/22 01:31:50;;;;;;;10.20;7.40;;;9.20;99.90;;;;;;5017297;28;20035;-83
2021/04/22 01:34:15;;;;;;;12.13;8.10;;;9.30;99.90;;;;;;5035021;28;20029;-83
2021/04/22 01:36:44;;;;;;;11.00;7.88;;;9.30;99.90;;;;;;5034972;28;20428;-83
2021/04/22 01:39:12;;;;;;;11.65;8.45;;;9.30;99.90;;;;;;5034763;28;20039;-83
2021/04/22 01:41:38;;;;;;;10.25;7.35;;;9.30;99.90;;;;;;5034881;28;20075;-82
2021/04/22 01:44:04;;;;;;;13.10;7.95;;;9.30;99.90;;;;;;5016931;28;20405;-83
2021/04/22 01:46:30;;;;;;;13.38;8.05;;;9.10;99.90;;;;;;5034716;28;20105;-83
2021/04/22 01:48:56;;;;;;;12.02;8.07;;;9.30;99.90;;;;;;5016940;28;20463;-83
2021/04/22 01:51:23;;;;;;;10.95;7.45;;;9.30;99.90;;;;;;5034963;28;20021;-83
2021/04/22 01:53:49;;;;;;;11.55;7.78;;;9.40;99.90;;;;;;5016889;28;20064;-82
2021/04/22 01:56:17;;;;;;;10.07;8.05;;;9.30;99.90;;;;;;5034611;28;20116;-83
2021/04/22 01:58:44;;;;;;;9.45;7.72;;;9.30;99.90;;;;;;5034475;28;20029;-83
2021/04/22 02:01:10;;;;;;;12.23;8.02;;;9.20;99.90;;;;;;5034782;28;20021;-83
2021/04/22 02:03:36;;;;;;;13.65;8.27;;;9.10;99.90;;;;;;5034715;28;20033;-83
2021/04/22 02:06:04;;;;;;;11.55;9.60;;;9.30;99.90;;;;;;5034715;28;20101;-83
2021/04/22 02:08:31;;;;;;;16.52;10.50;;;9.20;99.90;;;;;;5016581;28;20034;-83
2021/04/22 02:10:58;;;;;;;13.13;9.80;;;9.10;99.90;;;;;;5016615;28;20481;-83
2021/04/22 02:13:26;;;;;;;18.20;9.98;;;9.00;99.90;;;;;;5034280;28;20026;-83
2021/04/22 02:15:52;;;;;;;14.77;9.80;;;9.00;99.90;;;;;;5034193;28;20051;-83
2021/04/22 02:18:18;;;;;;;13.50;9.73;;;9.10;99.90;;;;;;5034347;28;20032;-83
2021/04/22 02:20:44;;;;;;;12.50;9.45;;;9.10;99.90;;;;;;5034160;28;20389;-83
2021/04/22 02:23:14;;;;;;;14.68;9.40;;;9.10;99.90;;;;;;5034438;28;20029;-83
2021/04/22 02:25:40;;;;;;;12.25;10.15;;;9.10;99.90;;;;;;5015986;28;20517;-83
2021/04/22 02:28:07;;;;;;;15.00;9.88;;;9.20;99.90;;;;;;5034354;28;20116;-83
2021/04/22 02:30:35;;;;;;;12.35;8.95;;;9.10;99.90;;;;;;5016241;28;20036;-83
2021/04/22 02:33:04;;;;;;;13.07;9.75;;;9.10;99.90;;;;;;5033906;28;20444;-83
2021/04/22 02:35:32;;;;;;;13.57;10.02;;;8.90;99.90;;;;;;5016163;28;20032;-83
2021/04/22 02:38:00;;;;;;;17.27;11.00;;;9.00;99.90;;;;;;5016001;28;20485;-83
2021/04/22 02:40:28;;;;;;;15.68;11.05;;;9.10;99.90;;;;;;5033797;28;20017;-83
2021/04/22 02:42:57;;;;;;;15.02;9.85;;;9.10;99.90;;;;;;5033812;28;20025;-83
2021/04/22 02:45:28;;;;;;;16.55;10.05;;;9.00;99.90;;;;;;5015883;28;20042;-83
2021/04/22 02:47:55;;;;;;;12.93;9.38;;;9.30;99.90;;;;;;5033718;28;20480;-83
2021/04/22 02:50:23;;;;;;;16.50;10.73;;;9.50;99.90;;;;;;5033612;28;20029;-83
2021/04/22 02:52:49;;;;;;;14.80;10.25;;;9.30;99.90;;;;;;5015861;28;20547;-83
2021/04/22 02:55:15;;;;;;;17.25;11.70;;;9.10;99.90;;;;;;5033602;28;20029;-83
2021/04/22 02:57:41;;;;;;;15.70;11.15;;;9.10;99.90;;;;;;5033491;28;20388;-83
2021/04/22 03:00:10;;;;;;;15.38;10.35;;;9.10;99.90;;;;;;5033499;28;20096;-83
2021/04/22 03:02:36;;;;;;;13.45;10.15;;;9.20;99.90;;;;;;5015652;28;20026;-83
2021/04/22 03:05:03;;;;;;;14.93;10.77;;;9.10;99.90;;;;;;5015666;28;20104;-83
2021/04/22 03:07:29;;;;;;;14.80;10.02;;;9.00;99.90;;;;;;5015663;28;20098;-83
2021/04/22 03:09:54;;;;;;;14.00;11.10;;;8.90;99.90;;;;;;5033357;28;20110;-83
2021/04/22 03:12:20;;;;;;;15.18;11.07;;;9.00;99.90;;;;;;5033361;28;20022;-83
2021/04/22 03:14:46;;;;;;;16.75;11.25;;;8.90;99.90;;;;;;5033339;28;20032;-83
2021/04/22 03:17:12;;;;;;;14.60;10.60;;;9.00;99.90;;;;;;5015546;28;20021;-83
2021/04/22 03:19:37;;;;;;;16.60;11.60;;;9.00;99.90;;;;;;5015466;28;20052;-83
2021/04/22 03:22:03;;;;;;;17.15;12.00;;;9.00;99.90;;;;;;5015568;28;20481;-83
2021/04/22 03:24:29;;;;;;;17.67;11.65;;;9.00;99.90;;;;;;5015485;28;20029;-83
2021/04/22 03:26:55;;;;;;;13.98;10.95;;;9.00;99.90;;;;;;5015516;28;20481;-83
2021/04/22 03:29:21;;;;;;;17.27;11.48;;;9.00;99.90;;;;;;5033424;28;20029;-83
2021/04/22 03:31:46;;;;;;;18.58;10.82;;;8.80;99.90;;;;;;5033147;28;20033;-83
2021/04/22 03:34:12;;;;;;;13.63;10.75;;;8.80;99.90;;;;;;5033089;28;20097;-83
2021/04/22 03:36:38;;;;;;;16.65;11.50;;;9.00;99.90;;;;;;5033066;28;20028;-83
2021/04/22 03:39:05;;;;;;;16.90;12.43;;;9.00;99.90;;;;;;5017366;28;20381;-83
2021/04/22 03:41:31;;;;;;;18.45;13.20;;;9.00;99.90;;;;;;5037098;28;20022;-83
2021/04/22 03:43:57;;;;;;;16.92;12.25;;;8.90;99.90;;;;;;5036950;28;20374;-83
2021/04/22 03:46:22;;;;;;;16.67;12.60;;;8.80;99.90;;;;;;5037107;28;20362;-83
2021/04/22 03:48:48;;;;;;;18.05;12.93;;;8.90;99.90;;;;;;5019242;28;20025;-83
2021/04/22 03:51:14;;;;;;;27.98;16.80;;;8.90;99.90;;;;;;5036941;28;20037;-83
2021/04/22 03:53:40;;;;;;;21.98;15.15;;;8.90;99.90;;;;;;5019147;28;20026;-83
2021/04/22 03:56:06;;;;;;;27.20;17.42;;;8.90;99.90;;;;;;5019038;28;20116;-83
2021/04/22 03:58:32;;;;;;;21.15;16.30;;;9.00;99.90;;;;;;5019005;28;20397;-83
2021/04/22 04:00:57;;;;;;;22.70;16.65;;;9.00;99.90;;;;;;5018996;28;20021;-83
2021/04/22 04:03:23;;;;;;;29.95;19.63;;;9.00;99.90;;;;;;5019260;28;20383;-83
2021/04/22 04:05:49;;;;;;;33.72;24.65;;;9.20;99.90;;;;;;5036728;28;20100;-83
2021/04/22 04:08:14;;;;;;;29.52;21.42;;;9.20;99.90;;;;;;5036923;28;20032;-83
2021/04/22 04:10:40;;;;;;;30.92;21.55;;;9.20;99.90;;;;;;5037131;28;20025;-83
2021/04/22 04:13:06;;;;;;;28.10;20.38;;;9.30;99.90;;;;;;5018788;28;20107;-83
2021/04/22 04:15:32;;;;;;;36.35;26.25;;;9.20;99.90;;;;;;5036458;28;20030;-83
2021/04/22 04:17:58;;;;;;;28.05;19.60;;;9.10;99.90;;;;;;5036691;28;20032;-83
2021/04/22 04:20:24;;;;;;;31.13;22.70;;;9.10;99.90;;;;;;5018632;28;20025;-83
2021/04/22 04:22:50;;;;;;;41.22;27.73;;;9.30;99.90;;;;;;5036344;28;20492;-83
2021/04/22 04:25:16;;;;;;;37.92;26.90;;;9.30;99.90;;;;;;5018590;28;20071;-83
2021/04/22 04:27:42;;;;;;;36.13;25.05;;;9.20;99.90;;;;;;5018492;28;20064;-83
2021/04/22 04:30:10;;;;;;;32.95;24.38;;;9.20;99.90;;;;;;5018516;28;20063;-83
2021/04/22 04:32:36;;;;;;;31.50;23.30;;;9.20;99.90;;;;;;5018414;28;20029;-83
2021/04/22 04:35:02;;;;;;;34.03;24.48;;;9.20;99.90;;;;;;5036432;28;20029;-83
2021/04/22 04:37:28;;;;;;;29.98;22.05;;;9.20;99.90;;;;;;5036036;28;20101;-83
2021/04/22 04:39:53;;;;;;;31.35;23.60;;;9.30;99.90;;;;;;5018318;28;20018;-83
2021/04/22 04:42:19;;;;;;;33.50;23.08;;;9.30;99.90;;;;;;5036043;28;20025;-83
2021/04/22 04:44:45;;;;;;;33.83;24.85;;;9.30;99.90;;;;;;5018277;28;20049;-83
2021/04/22 04:47:11;;;;;;;43.15;27.08;;;9.20;99.90;;;;;;5018172;28;20056;-83
2021/04/22 04:49:37;;;;;;;35.60;24.30;;;9.20;99.90;;;;;;5017675;28;20028;-83
2021/04/22 04:52:03;;;;;;;28.60;21.33;;;9.10;99.90;;;;;;5035856;28;20029;-83
2021/04/22 04:54:28;;;;;;;41.50;25.67;;;9.10;99.90;;;;;;5018015;28;20029;-83
2021/04/22 04:56:55;;;;;;;36.92;25.55;;;9.20;99.90;;;;;;5035742;28;20044;-83
2021/04/22 04:59:21;;;;;;;36.25;23.15;;;9.20;99.90;;;;;;5017868;28;20030;-83
2021/04/22 05:01:46;;;;;;;36.60;25.60;;;9.30;99.90;;;;;;5017838;28;20373;-83
2021/04/22 05:04:12;;;;;;;32.70;22.85;;;9.30;99.90;;;;;;5036075;28;20381;-83
2021/04/22 05:06:39;;;;;;;37.67;25.00;;;9.30;99.90;;;;;;5017794;28;20029;-83
2021/04/22 05:09:05;;;;;;;30.88;22.02;;;9.40;99.90;;;;;;5035734;28;20031;-83
2021/04/22 05:11:31;;;;;;;26.13;20.58;;;9.30;99.90;;;;;;5017641;28;20029;-83
2021/04/22 05:13:56;;;;;;;29.88;22.10;;;9.40;99.90;;;;;;5017676;28;20076;-83
2021/04/22 05:16:22;;;;;;;30.98;22.98;;;9.50;99.90;;;;;;5035432;28;20030;-83
2021/04/22 05:18:48;;;;;;;30.65;22.60;;;9.50;99.90;;;;;;5017486;28;20025;-83
2021/04/22 05:21:13;;;;;;;31.60;21.80;;;9.50;99.90;;;;;;5017457;28;20025;-82
2021/04/22 05:23:39;;;;;;;32.13;22.30;;;9.50;99.90;;;;;;5017432;28;20025;-83
2021/04/22 05:26:05;;;;;;;32.63;22.17;;;9.60;99.90;;;;;;5035201;28;20071;-83
2021/04/22 05:28:30;;;;;;;30.77;21.02;;;9.70;99.90;;;;;;5017543;28;20022;-83
2021/04/22 05:30:56;;;;;;;29.15;21.00;;;9.60;99.90;;;;;;5017378;28;20040;-83
2021/04/22 05:33:22;;;;;;;35.72;21.42;;;9.50;99.90;;;;;;5017289;28;20025;-83
2021/04/22 05:35:47;;;;;;;35.88;23.20;;;9.50;99.90;;;;;;5035293;28;20049;-83
2021/04/22 05:38:13;;;;;;;26.55;21.00;;;9.50;99.90;;;;;;5035091;28;20401;-83
2021/04/22 05:40:39;;;;;;;36.00;22.65;;;9.40;99.90;;;;;;5034880;28;20036;-83
2021/04/22 05:43:07;;;;;;;30.33;22.80;;;9.40;99.90;;;;;;5034882;28;20021;-83
2021/04/22 05:45:34;;;;;;;32.50;21.90;;;9.50;99.90;;;;;;5034682;28;20038;-83
2021/04/22 05:48:00;;;;;;;30.52;21.88;;;9.50;99.90;;;;;;5034809;28;20393;-83
2021/04/22 05:50:26;;;;;;;32.33;22.70;;;9.50;99.90;;;;;;5017001;28;20029;-83
2021/04/22 05:52:52;;;;;;;34.08;20.92;;;9.50;99.90;;;;;;5035132;28;20064;-83
2021/04/22 05:55:18;;;;;;;30.77;22.02;;;9.70;99.90;;;;;;5034585;28;20026;-83
2021/04/22 05:57:44;;;;;;;30.95;22.23;;;9.90;99.90;;;;;;5034521;28;20109;-83
2021/04/22 06:00:14;;;;;;;35.17;21.67;;;9.90;99.90;;;;;;5016640;28;20029;-83
2021/04/22 06:02:39;;;;;;;32.25;21.70;;;10.00;99.90;;;;;;5033798;28;20053;-83
2021/04/22 06:05:06;;;;;;;37.22;23.35;;;10.00;99.90;;;;;;5034434;28;20060;-83
2021/04/22 06:07:32;;;;;;;32.88;22.70;;;10.10;99.90;;;;;;5034303;28;20493;-83
2021/04/22 06:09:57;;;;;;;32.85;23.13;;;9.90;99.90;;;;;;5034587;28;20028;-82
2021/04/22 06:12:23;;;;;;;34.45;22.63;;;9.80;99.90;;;;;;5016577;28;20080;-82
2021/04/22 06:14:49;;;;;;;31.92;22.17;;;9.70;99.90;;;;;;5016499;28;20037;-82
2021/04/22 06:17:15;;;;;;;32.00;22.25;;;9.70;99.90;;;;;;5034721;28;20053;-82
2021/04/22 06:19:41;;;;;;;35.22;22.92;;;9.70;99.90;;;;;;5016382;28;20025;-82
2021/04/22 06:22:07;;;;;;;30.85;23.05;;;9.70;99.90;;;;;;5034114;28;20030;-83
2021/04/22 06:24:32;;;;;;;31.25;22.13;;;9.70;99.90;;;;;;5034083;28;20109;-83
2021/04/22 06:26:58;;;;;;;31.50;22.02;;;9.80;99.90;;;;;;5034285;28;20021;-83
2021/04/22 06:29:24;;;;;;;32.45;21.25;;;9.90;99.90;;;;;;5034292;28;20026;-83
2021/04/22 06:31:50;;;;;;;29.77;20.70;;;10.00;99.90;;;;;;5033945;28;20030;-83
2021/04/22 06:34:16;;;;;;;33.53;22.52;;;10.00;99.90;;;;;;5016196;28;20053;-83
2021/04/22 06:36:43;;;;;;;29.63;20.92;;;9.90;99.90;;;;;;5033915;28;20053;-83
2021/04/22 06:39:09;;;;;;;36.05;21.92;;;9.90;99.90;;;;;;5033666;28;20029;-82
2021/04/22 06:41:35;;;;;;;34.88;22.65;;;9.90;99.90;;;;;;5033773;28;20224;-83
2021/04/22 06:44:02;;;;;;;34.95;22.10;;;9.90;99.90;;;;;;5033733;28;20497;-82
2021/04/22 06:46:27;;;;;;;31.30;21.95;;;9.90;99.90;;;;;;5015955;28;20048;-82
2021/04/22 06:48:53;;;;;;;32.90;22.15;;;10.00;99.90;;;;;;5015959;28;20171;-83
2021/04/22 06:51:19;;;;;;;38.60;22.83;;;9.90;99.90;;;;;;5033629;28;20496;-83
2021/04/22 06:53:45;;;;;;;30.67;21.13;;;10.10;99.90;;;;;;5033557;28;20068;-83
2021/04/22 06:56:10;;;;;;;30.48;21.02;;;10.20;99.90;;;;;;5015864;28;20090;-83
2021/04/22 06:58:36;;;;;;;31.30;21.90;;;10.10;99.90;;;;;;5015751;28;20473;-83
2021/04/22 07:01:02;;;;;;;34.00;22.38;;;10.20;99.90;;;;;;5016036;28;20025;-83
2021/04/22 07:03:28;;;;;;;26.65;19.75;;;10.20;99.90;;;;;;5033443;28;20029;-84
2021/04/22 07:05:54;;;;;;;30.38;20.17;;;10.20;99.90;;;;;;5015756;28;20033;-84
2021/04/22 07:08:20;;;;;;;33.20;20.58;;;10.30;99.90;;;;;;5015921;28;20032;-83
2021/04/22 07:10:45;;;;;;;27.73;20.30;;;10.10;99.90;;;;;;5033602;28;20029;-84
2021/04/22 07:13:11;;;;;;;31.88;19.88;;;10.20;99.90;;;;;;5015592;28;20136;-84
2021/04/22 07:15:37;;;;;;;30.85;20.45;;;10.10;99.90;;;;;;5033359;28;20036;-84
2021/04/22 07:18:06;;;;;;;31.05;20.25;;;10.10;99.90;;;;;;5015469;28;20064;-84
2021/04/22 07:20:31;;;;;;;33.90;18.95;;;10.10;99.90;;;;;;5015352;28;20025;-84
2021/04/22 07:22:59;;;;;;;27.10;20.00;;;10.10;99.90;;;;;;5015446;28;20022;-84
2021/04/22 07:25:30;;;;;;;33.97;20.00;;;10.00;99.90;;;;;;5015511;28;20517;-84
2021/04/22 07:27:56;;;;;;;34.45;19.40;;;10.10;99.90;;;;;;5033479;28;20028;-84
2021/04/22 07:30:23;;;;;;;32.53;19.13;;;10.20;99.90;;;;;;5015402;28;20083;-84
2021/04/22 07:32:50;;;;;;;27.13;19.88;;;10.20;99.90;;;;;;5015484;28;20511;-84
2021/04/22 07:35:18;;;;;;;29.75;20.63;;;10.30;99.90;;;;;;5015395;28;20034;-84
2021/04/22 07:37:45;;;;;;;37.92;23.08;;;10.10;99.90;;;;;;5032877;28;20049;-84
2021/04/22 07:40:16;;;;;;;32.72;19.92;;;10.20;99.90;;;;;;5033301;28;20107;-84
2021/04/22 07:42:42;;;;;;;33.63;20.88;;;10.30;99.90;;;;;;5015405;28;20481;-84
2021/04/22 07:45:08;;;;;;;32.63;20.48;;;10.40;99.90;;;;;;5032850;28;20069;-84
2021/04/22 07:47:34;;;;;;;32.80;19.50;;;10.40;99.90;;;;;;5033227;28;20469;-84
2021/04/22 07:50:00;;;;;;;34.83;20.38;;;10.50;99.90;;;;;;5032921;28;20032;-84
2021/04/22 07:52:26;;;;;;;29.95;21.05;;;10.40;99.90;;;;;;5032927;28;20021;-84
2021/04/22 07:54:51;;;;;;;34.42;21.08;;;10.40;99.90;;;;;;5032951;28;20060;-84
2021/04/22 07:57:17;;;;;;;31.95;19.65;;;10.30;99.90;;;;;;5015082;28;20084;-84
2021/04/22 07:59:43;;;;;;;34.13;21.00;;;10.40;99.90;;;;;;5015023;28;20040;-84
2021/04/22 08:02:11;;;;;;;29.92;20.25;;;10.30;99.90;;;;;;5032842;28;20049;-84
2021/04/22 08:04:37;;;;;;;32.30;19.63;;;10.30;99.90;;;;;;5032721;28;20017;-85
2021/04/22 08:07:03;;;;;;;30.73;18.88;;;10.40;99.90;;;;;;5033036;28;20020;-84
2021/04/22 08:09:28;;;;;;;29.00;18.10;;;10.30;99.90;;;;;;5032901;28;20469;-84
2021/04/22 08:11:54;;;;;;;39.38;26.00;;;10.50;99.90;;;;;;5032756;28;20523;-85
2021/04/22 08:14:20;;;;;;;33.55;18.60;;;10.40;99.90;;;;;;5032798;28;20385;-85
2021/04/22 08:16:46;;;;;;;30.40;18.05;;;10.30;99.90;;;;;;5015071;28;20030;-85
2021/04/22 08:19:12;;;;;;;26.23;17.45;;;10.30;99.90;;;;;;5032629;28;20053;-85
2021/04/22 08:21:38;;;;;;;29.55;18.40;;;10.30;99.90;;;;;;5032972;28;20105;-85
2021/04/22 08:24:04;;;;;;;27.55;17.98;;;10.20;99.90;;;;;;5033036;28;20021;-85
2021/04/22 08:26:30;;;;;;;31.40;17.42;;;10.20;99.90;;;;;;5018549;28;20029;-85
2021/04/22 08:28:56;;;;;;;30.65;17.88;;;10.30;99.90;;;;;;5018555;28;20065;-85
2021/04/22 08:31:24;;;;;;;26.05;17.38;;;10.20;99.90;;;;;;5018576;28;20029;-85
2021/04/22 08:33:57;;;;;;;27.38;17.17;;;10.20;99.90;;;;;;5018461;28;20025;-85
2021/04/22 08:36:23;;;;;;;28.30;18.83;;;10.10;99.90;;;;;;5018535;28;20053;-84
2021/04/22 08:38:50;;;;;;;36.72;17.90;;;10.10;99.90;;;;;;5018483;28;20425;-84
2021/04/22 08:41:17;;;;;;;29.25;16.48;;;10.20;99.90;;;;;;5018320;28;20030;-84
2021/04/22 08:43:44;;;;;;;28.40;17.52;;;10.30;99.90;;;;;;5017993;28;20068;-85
2021/04/22 08:46:10;;;;;;;27.30;15.93;;;10.20;99.90;;;;;;5036067;28;20036;-85
2021/04/22 08:48:37;;;;;;;28.90;16.48;;;10.30;99.90;;;;;;5035976;28;20546;-84
2021/04/22 08:51:04;;;;;;;25.88;16.50;;;10.30;99.90;;;;;;5018146;28;20057;-84
2021/04/22 08:53:35;;;;;;;23.65;16.15;;;10.30;99.90;;;;;;5035825;28;20026;-85
2021/04/22 08:56:01;;;;;;;32.00;16.48;;;10.20;99.90;;;;;;5017784;28;20064;-83
2021/04/22 08:58:28;;;;;;;29.92;16.65;;;10.20;99.90;;;;;;5035512;28;20476;-83
2021/04/22 09:01:07;;;;;;;28.35;16.88;;;10.20;99.90;;;;;;5017914;28;20502;-85
2021/04/22 09:03:33;;;;;;;23.45;15.27;;;10.30;99.90;;;;;;5017905;28;20032;-84
2021/04/22 09:05:59;;;;;;;25.77;15.10;;;10.30;99.90;;;;;;5017810;28;20396;-84
2021/04/22 09:08:34;;;;;;;27.35;16.27;;;10.50;99.90;;;;;;5035547;28;20189;-84
2021/04/22 09:11:00;;;;;;;29.25;16.00;;;10.40;99.90;;;;;;5035478;28;20029;-84
2021/04/22 09:13:26;;;;;;;26.02;14.65;;;10.40;99.90;;;;;;5017702;28;20400;-84
2021/04/22 09:16:00;;;;;;;26.10;15.15;;;10.40;99.90;;;;;;5017935;28;20045;-84
2021/04/22 09:18:26;;;;;;;24.33;13.75;;;10.40;99.90;;;;;;5018033;28;20076;-85
2021/04/22 09:20:54;;;;;;;26.33;13.93;;;10.50;99.90;;;;;;5035734;28;20034;-85
2021/04/22 09:23:28;;;;;;;24.25;14.32;;;10.70;99.90;;;;;;5035333;28;20056;-84
2021/04/22 09:26:05;;;;;;;28.08;14.90;;;10.70;99.90;;;;;;5017772;28;20030;-84
2021/04/22 09:28:43;;;;;;;27.45;14.10;;;10.50;99.90;;;;;;5017341;28;20481;-84
2021/04/22 09:31:11;;;;;;;24.02;14.55;;;10.60;99.90;;;;;;5035097;28;20048;-84
2021/04/22 09:33:38;;;;;;;26.60;13.75;;;10.80;99.90;;;;;;5035051;28;20481;-84
2021/04/22 09:36:13;;;;;;;24.50;13.52;;;10.80;99.90;;;;;;5033815;28;20026;-85
2021/04/22 09:38:40;;;;;;;26.80;13.48;;;10.90;99.90;;;;;;5035132;28;20025;-84
2021/04/22 09:41:15;;;;;;;21.63;12.77;;;11.10;99.90;;;;;;5017193;28;20033;-85
2021/04/22 09:43:41;;;;;;;21.77;13.00;;;11.20;99.90;;;;;;5034951;28;20425;-85
2021/04/22 09:46:23;;;;;;;22.88;12.65;;;11.40;99.90;;;;;;5017388;28;20044;-84
2021/04/22 09:48:50;;;;;;;23.58;12.38;;;11.40;99.90;;;;;;5018856;28;20432;-84
2021/04/22 09:51:31;;;;;;;24.58;12.45;;;11.40;99.90;;;;;;5035671;28;20017;-84
2021/04/22 09:54:05;;;;;;;26.05;13.43;;;11.40;99.90;;;;;;5017276;28;20121;-86
2021/04/22 09:56:40;;;;;;;;;;;11.50;99.90;;;;;;5035097;28;20021;-85
2021/04/22 09:59:07;;;;;;;26.48;12.05;;;11.70;99.90;;;;;;5034557;28;19916;-85
2021/04/22 10:01:33;;;;;;;23.92;12.55;;;12.30;99.90;;;;;;5016982;28;20029;-86
2021/04/22 10:03:59;;;;;;;23.63;12.40;;;12.40;99.90;;;;;;5016740;28;20026;-86
2021/04/22 10:06:24;;;;;;;19.83;11.95;;;12.50;99.90;;;;;;5034581;28;20096;-86
2021/04/22 10:08:50;;;;;;;23.25;12.30;;;12.80;99.90;;;;;;5016745;28;20028;-85
2021/04/22 10:11:16;;;;;;;19.20;11.50;;;13.10;99.90;;;;;;5016954;28;20037;-85
2021/04/22 10:13:44;;;;;;;27.48;11.85;;;13.20;99.90;;;;;;5017021;28;20116;-86
2021/04/22 10:16:10;;;;;;;22.92;11.73;;;13.40;99.90;;;;;;5034531;28;20021;-86
2021/04/22 10:18:45;;;;;;;22.02;11.88;;;13.50;99.90;;;;;;5017016;28;20036;-86
2021/04/22 10:21:12;;;;;;;21.98;11.90;;;13.60;99.90;;;;;;5034861;28;20108;-86
2021/04/22 10:23:38;;;;;;;21.10;11.73;;;14.00;99.90;;;;;;5034566;28;20025;-86
2021/04/22 10:26:04;;;;;;;17.25;10.73;;;14.50;99.90;;;;;;5016933;28;20040;-84
2021/04/22 10:28:30;;;;;;;21.08;10.75;;;14.80;99.90;;;;;;5016687;28;20026;-84
2021/04/22 10:30:57;;;;;;;19.70;10.32;;;14.90;99.90;;;;;;5016495;28;20087;-84
2021/04/22 10:33:27;;;;;;;22.00;10.38;;;14.40;99.90;;;;;;5040201;28;20029;-84
2021/04/22 10:35:54;;;;;;;21.70;10.32;;;14.10;99.90;;;;;;5020388;28;20021;-84
2021/04/22 10:38:21;;;;;;;14.50;10.30;;;14.60;99.90;;;;;;5018478;28;20064;-84
2021/04/22 10:40:52;;;;;;;19.45;10.65;;;14.80;99.90;;;;;;5021059;28;20023;-84
2021/04/22 10:43:21;;;;;;;19.20;10.60;;;14.60;99.90;;;;;;5021656;28;20022;-85
2021/04/22 10:45:49;;;;;;;20.30;10.35;;;14.50;99.90;;;;;;5034714;28;20041;-85
2021/04/22 10:48:16;;;;;;;14.50;9.98;;;15.10;99.90;;;;;;5018561;28;20025;-84
2021/04/22 10:50:45;;;;;;;18.08;11.05;;;15.40;99.90;;;;;;5024152;28;20025;-84
2021/04/22 10:53:14;;;;;;;16.63;9.23;;;16.00;99.90;;;;;;5040606;28;20389;-84
2021/04/22 10:55:46;;;;;;;15.93;9.35;;;16.40;99.90;;;;;;5005765;28;20040;-84
2021/04/22 10:58:13;;;;;;;20.27;9.38;;;16.40;99.90;;;;;;5039781;28;20021;-85
2021/04/22 11:00:50;;;;;;;17.75;8.40;;;16.50;99.20;;;;;;5021575;28;20506;-84
2021/04/22 11:03:26;;;;;;;17.10;9.00;;;16.50;98.60;;;;;;5023321;28;20449;-84
2021/04/22 11:06:15;;;;;;;17.70;7.85;;;16.00;97.90;;;;;;5020314;28;20025;-84
2021/04/22 11:08:50;;;;;;;18.17;9.02;;;16.50;98.30;;;;;;5037444;28;20033;-84
2021/04/22 11:11:15;;;;;;;;;;;16.80;96.40;;;;;;5038639;28;20512;-84
2021/04/22 11:13:42;;;;;;;14.98;8.43;;;17.10;97.30;;;;;;5022255;28;19909;-84
2021/04/22 11:16:08;;;;;;;16.15;8.45;;;17.10;96.60;;;;;;5018257;28;20058;-85
2021/04/22 11:18:35;;;;;;;12.85;5.90;;;17.20;96.50;;;;;;5016175;28;20033;-86
2021/04/22 11:21:01;;;;;;;12.45;5.50;;;17.50;92.50;;;;;;5016321;28;20029;-85
2021/04/22 11:23:27;;;;;;;13.50;5.75;;;18.00;88.70;;;;;;5017182;28;20026;-84
2021/04/22 11:25:55;;;;;;;11.82;5.60;;;17.90;87.00;;;;;;5016188;28;20072;-85
2021/04/22 11:28:33;;;;;;;11.23;5.32;;;18.20;86.80;;;;;;5015457;28;20029;-84
2021/04/22 11:31:11;;;;;;;10.15;4.50;;;18.20;80.20;;;;;;5015585;28;20065;-84
2021/04/22 11:33:38;;;;;;;10.02;5.90;;;18.50;81.20;;;;;;5033235;28;20052;-85
2021/04/22 11:36:24;;;;;;;10.55;5.70;;;18.50;79.60;;;;;;5015534;28;20021;-86
2021/04/22 11:38:58;;;;;;;9.38;5.25;;;18.00;79.60;;;;;;5015448;28;20389;-85
2021/04/22 11:41:25;;;;;;;;;;;18.40;81.70;;;;;;5017077;28;20030;-85
2021/04/22 11:44:03;;;;;;;11.55;5.25;;;18.20;75.60;;;;;;5035040;28;19917;-85
2021/04/22 11:46:46;;;;;;;10.90;5.80;;;18.20;75.90;;;;;;5033623;28;20033;-86
2021/04/22 11:49:32;;;;;;;8.80;4.70;;;18.90;74.80;;;;;;5015397;28;20026;-84
2021/04/22 11:51:59;;;;;;;10.10;5.15;;;18.90;73.80;;;;;;5033268;28;20038;-85
2021/04/22 11:54:32;;;;;;;10.20;5.68;;;18.70;73.50;;;;;;5015689;28;20029;-85
2021/04/22 11:57:02;;;;;;;14.57;6.00;;;19.10;73.40;;;;;;5033080;28;20033;-85
2021/04/22 11:59:28;;;;;;;10.60;5.20;;;19.60;70.30;;;;;;5034066;28;20038;-85
2021/04/22 12:01:56;;;;;;;12.60;6.18;;;20.00;72.80;;;;;;5019249;28;20105;-86
2021/04/22 12:04:33;;;;;;;10.68;5.40;;;19.60;68.70;;;;;;5019194;28;20431;-86
2021/04/22 12:06:59;;;;;;;11.75;4.82;;;19.70;68.00;;;;;;5019237;28;20056;-85
2021/04/22 12:09:32;;;;;;;9.60;5.20;;;19.60;66.00;;;;;;5036690;28;20447;-85
2021/04/22 12:12:20;;;;;;;11.25;5.28;;;19.90;69.00;;;;;;5036927;28;20033;-87
2021/04/22 12:14:51;;;;;;;13.20;6.03;;;19.80;70.70;;;;;;5018818;28;20029;-84
2021/04/22 12:17:23;;;;;;;11.82;5.10;;;19.60;67.20;;;;;;5037016;28;20354;-85
2021/04/22 12:19:53;;;;;;;9.80;5.60;;;19.60;69.70;;;;;;5036396;28;20033;-85
2021/04/22 12:22:46;;;;;;;9.45;4.43;;;19.50;66.90;;;;;;5018826;28;20021;-86
2021/04/22 12:25:19;;;;;;;7.28;3.95;;;;;;;;;;5033527;28;20489;-86
2021/04/22 12:27:56;;;;;;;10.00;5.10;;;;;;;;;;5023870;28;20436;-85
2021/04/22 12:30:25;;;;;;;8.52;4.10;;;;;;;;;;5023561;28;20112;-84
2021/04/22 12:32:51;;;;;;;11.18;4.32;;;;;;;;;;5023363;28;20025;-85
2021/04/22 12:35:18;;;;;;;15.30;5.00;;;;;;;;;;5020925;28;20030;-85
2021/04/22 12:37:44;;;;;;;14.23;4.15;;;;;;;;;;5022496;28;20049;-85
2021/04/22 12:40:11;;;;;;;12.15;3.88;;;;;;;;;;5022221;28;20021;-85
2021/04/22 12:42:37;;;;;;;10.25;4.00;;;;;;;;;;5043237;28;20025;-85